Hauptseite
METAR-TAF:

METAR-TAF

Flughäfen :

Bradshaw Army Air Field

Bradshaw, Hawaii, Vereinigte Staaten

Breite: 19-47N, Länge: 155-33W, Höhe: 1887 m

Beobachtung

Neuester Wetterbericht von vor 1 Stunde und 12 Minuten, um 14:55 UTC
Wind 6 kt aus Nord/Nordwest
Temperatur 7°C
Luftfeuchtigkeit 66%
Luftdruck 1023 hPa
Sichtweite: 16.1 km
Himmel klar

METAR: PHSF 161455Z AUTO 34006KT 10SM CLR 07/01 A3022 RMK AO2 SLP128 T00670014 $

Zeit: 06:07 (16:07 UTC)


TAF: fehlend

Wetterbeobachtungen und Prognosen von mehr als 4000 Flughäfen (METAR und TAF Bericht).

Die verfügbaren Stationen werden durch gelbe und rote Markierungen auf der Karte dargestellt.

Führen Sie die Maus auf sie, um den Namen der Station zu sehen.

Darauf klicken, um die Beobachtung von Wetterbeobachtungen und Prognosen zu sehen.

Um die Karte zu ändern : klicken Sie auf den grünen Tasten mit einem schwarzen Kreuz Zum Vergrößern, auf den grünen Button mit einem Gedankenstrich zu verkleinern, oder auf die grünen Pfeile für benachbarte Karten.


METAR-TAF: